Time;durP1;ratioP1;P1;durP2;ratioP2;P2;SDS_P1;SDS_P2;PMS_P1;PMS_P2;Temp;Humidity;BMP_temperature;BMP_pressure;BME280_temperature;BME280_humidity;BME280_pressure;Samples;Min_cycle;Max_cycle;Signal;HPM_P1;HPM_P2
2023/04/27 00:01:44;;;;;;;34.70;18.30;;;;;;;13.22;97.61;100137.02;105916;1256;75497;-89
2023/04/27 00:04:13;;;;;;;35.20;19.50;;;;;;;13.18;98.13;100145.70;105869;1257;65637;-86
2023/04/27 00:06:41;;;;;;;34.60;18.40;;;;;;;13.18;98.66;100148.38;105861;1256;73973;-85
2023/04/27 00:09:08;;;;;;;29.30;16.20;;;;;;;13.17;99.24;100146.55;105837;1253;62980;-88
2023/04/27 00:11:35;;;;;;;30.50;16.50;;;;;;;13.14;99.50;100145.34;105918;1251;62518;-86
2023/04/27 00:14:02;;;;;;;32.70;18.20;;;;;;;13.12;99.97;100144.30;106171;1251;74034;-88
2023/04/27 00:16:30;;;;;;;35.90;17.90;;;;;;;13.11;100.00;100138.80;105837;1256;64573;-88
2023/04/27 00:18:57;;;;;;;31.80;17.40;;;;;;;13.09;100.00;100138.88;105832;1257;73835;-86
2023/04/27 00:21:24;;;;;;;31.20;18.90;;;;;;;13.09;100.00;100142.10;105902;1254;62968;-85
2023/04/27 00:23:53;;;;;;;38.40;19.80;;;;;;;13.06;100.00;100138.09;105869;1258;60892;-88
2023/04/27 00:26:21;;;;;;;31.20;17.40;;;;;;;13.02;100.00;100137.12;105817;1253;72813;-85
2023/04/27 00:28:49;;;;;;;31.60;16.40;;;;;;;13.02;100.00;100135.07;105935;1253;65049;-88
2023/04/27 00:31:16;;;;;;;26.90;17.00;;;;;;;13.03;100.00;100136.58;105979;1251;73633;-85
2023/04/27 00:33:43;;;;;;;34.00;17.30;;;;;;;13.04;100.00;100143.50;106682;1256;62340;-85
2023/04/27 00:36:10;;;;;;;32.60;15.70;;;;;;;13.08;100.00;100140.23;108054;1251;61937;-84
2023/04/27 00:38:37;;;;;;;30.60;15.50;;;;;;;13.13;100.00;100136.69;106410;1251;75021;-86
2023/04/27 00:41:06;;;;;;;35.30;17.50;;;;;;;13.14;100.00;100135.33;106194;1259;65534;-88
2023/04/27 00:43:43;;;;;;;22.50;14.00;;;;;;;13.13;100.00;100133.34;105990;1258;73683;-86
2023/04/27 00:46:11;;;;;;;20.50;12.90;;;;;;;13.12;100.00;100131.45;107589;1250;64001;-85
2023/04/27 00:48:39;;;;;;;22.30;13.70;;;;;;;13.16;100.00;100128.66;106470;1252;61277;-85
2023/04/27 00:51:06;;;;;;;34.10;16.10;;;;;;;13.19;100.00;100128.99;107021;1251;73688;-85
2023/04/27 00:53:33;;;;;;;25.80;14.70;;;;;;;13.23;100.00;100125.31;106340;1252;64936;-87
2023/04/27 00:56:02;;;;;;;26.80;15.60;;;;;;;13.27;100.00;100120.81;106066;1257;74633;-85
2023/04/27 00:58:29;;;;;;;37.10;19.60;;;;;;;13.29;100.00;100120.50;105860;1253;60962;-85
2023/04/27 01:00:58;;;;;;;31.40;16.40;;;;;;;13.25;100.00;100120.42;105926;1252;61963;-86
2023/04/27 01:03:26;;;;;;;35.20;16.50;;;;;;;13.16;100.00;100113.23;106004;1257;75743;-86
2023/04/27 01:05:53;;;;;;;29.20;14.30;;;;;;;13.08;100.00;100111.77;105922;1254;64708;-85
2023/04/27 01:08:20;;;;;;;31.80;16.40;;;;;;;13.00;100.00;100105.68;106250;1254;73605;-88
2023/04/27 01:10:48;;;;;;;37.20;14.90;;;;;;;12.96;100.00;100105.88;105780;1259;62620;-87
2023/04/27 01:13:17;;;;;;;27.60;15.00;;;;;;;12.92;100.00;100103.00;105757;1257;62317;-84
2023/04/27 01:15:44;;;;;;;18.50;12.30;;;;;;;12.86;100.00;100109.11;105923;1254;75153;-85
2023/04/27 01:18:11;;;;;;;15.50;10.40;;;;;;;12.80;100.00;100105.56;105970;1257;64908;-87
2023/04/27 01:20:41;;;;;;;14.40;11.30;;;;;;;12.74;100.00;100108.77;105889;1257;73967;-87
2023/04/27 01:23:15;;;;;;;21.10;11.90;;;;;;;12.73;100.00;100099.08;106701;1258;64097;-85
2023/04/27 01:25:43;;;;;;;26.80;14.00;;;;;;;12.73;100.00;100098.02;108775;1251;61349;-85
2023/04/27 01:28:10;;;;;;;21.90;13.90;;;;;;;12.76;100.00;100097.40;106637;1256;73781;-87
2023/04/27 01:30:37;;;;;;;27.80;13.90;;;;;;;12.80;100.00;100092.17;106263;1260;65024;-86
2023/04/27 01:33:04;;;;;;;24.20;13.20;;;;;;;12.85;100.00;100085.83;106060;1252;74677;-87
2023/04/27 01:35:31;;;;;;;27.20;13.50;;;;;;;12.93;100.00;100079.42;105621;1259;61920;-86
2023/04/27 01:37:59;;;;;;;30.30;13.20;;;;;;;13.00;100.00;100077.81;105854;1255;62407;-87
2023/04/27 01:40:26;;;;;;;25.00;15.70;;;;;;;13.04;100.00;100075.73;105917;1258;74666;-89
2023/04/27 01:42:53;;;;;;;23.00;14.40;;;;;;;13.05;100.00;100073.02;108046;1257;66778;-84
2023/04/27 01:45:20;;;;;;;25.20;13.60;;;;;;;13.05;100.00;100073.92;107349;1251;74611;-83
2023/04/27 01:47:50;;;;;;;30.70;14.90;;;;;;;13.00;100.00;100077.33;106592;1256;62627;-88
2023/04/27 01:50:19;;;;;;;23.30;14.50;;;;;;;12.96;100.00;100074.63;106028;1257;61144;-85
2023/04/27 01:52:46;;;;;;;25.90;14.20;;;;;;;12.95;100.00;100077.85;105946;1252;75050;-88
2023/04/27 01:55:13;;;;;;;28.00;14.30;;;;;;;12.94;100.00;100083.08;105888;1257;65682;-90
2023/04/27 01:57:41;;;;;;;23.90;13.70;;;;;;;12.91;100.00;100085.05;105898;1253;73683;-89
2023/04/27 02:00:08;;;;;;;26.40;14.80;;;;;;;12.90;100.00;100076.71;105883;1256;63222;-87
2023/04/27 02:02:49;;;;;;;22.30;14.40;;;;;;;12.92;100.00;100075.83;105783;1259;61119;-87
2023/04/27 02:05:17;;;;;;;25.70;13.80;;;;;;;12.94;100.00;100087.11;105785;1256;73989;-90
2023/04/27 02:07:44;;;;;;;22.60;13.50;;;;;;;12.90;100.00;100099.84;105959;1259;63917;-87
2023/04/27 02:10:11;;;;;;;21.50;13.60;;;;;;;12.89;100.00;100094.15;105947;1256;75506;-88
2023/04/27 02:12:39;;;;;;;22.60;13.80;;;;;;;12.89;100.00;100078.88;105888;1253;62745;-85
2023/04/27 02:15:07;;;;;;;28.90;14.60;;;;;;;12.91;100.00;100056.11;105920;1258;61204;-90
2023/04/27 02:17:34;;;;;;;18.90;11.90;;;;;;;12.90;100.00;100040.06;106025;1257;75336;-86
2023/04/27 02:20:01;;;;;;;23.90;12.70;;;;;;;12.88;100.00;100020.73;106377;1252;65552;-86
2023/04/27 02:22:28;;;;;;;18.80;11.20;;;;;;;12.89;100.00;100018.89;105940;1259;74733;-86
2023/04/27 02:24:55;;;;;;;12.20;8.40;;;;;;;12.89;100.00;100050.11;105915;1253;64023;-84
2023/04/27 02:27:22;;;;;;;13.60;9.20;;;;;;;12.76;100.00;100083.89;106028;1251;62242;-85
2023/04/27 02:29:50;;;;;;;19.50;12.30;;;;;;;12.66;100.00;100081.32;105700;1258;74621;-87
2023/04/27 02:32:17;;;;;;;23.40;15.70;;;;;;;12.62;100.00;100078.88;106240;1259;64726;-85
2023/04/27 02:34:44;;;;;;;23.50;15.80;;;;;;;12.59;100.00;100085.77;106304;1254;71307;-86
2023/04/27 02:37:11;;;;;;;24.50;14.70;;;;;;;12.59;100.00;100098.17;106584;1253;62716;-86
2023/04/27 02:39:38;;;;;;;24.30;16.40;;;;;;;12.59;100.00;100079.77;106148;1256;60470;-85
2023/04/27 02:42:05;;;;;;;21.40;16.00;;;;;;;12.60;100.00;100079.70;106190;1251;76201;-88
2023/04/27 02:44:34;;;;;;;29.20;16.00;;;;;;;12.62;100.00;100084.81;106003;1253;64765;-89
2023/04/27 02:47:01;;;;;;;25.40;14.70;;;;;;;12.64;100.00;100089.72;106090;1257;75095;-87
2023/04/27 02:49:28;;;;;;;18.10;11.10;;;;;;;12.68;100.00;100070.73;107690;1255;61177;-86
2023/04/27 02:51:55;;;;;;;19.80;10.70;;;;;;;12.71;100.00;100049.96;107543;1252;62596;-86
2023/04/27 02:54:22;;;;;;;26.00;14.60;;;;;;;12.77;100.00;100046.98;106524;1251;75544;-87
2023/04/27 02:56:49;;;;;;;25.40;15.20;;;;;;;12.85;100.00;100040.26;106050;1255;66270;-86
2023/04/27 02:59:17;;;;;;;17.40;11.30;;;;;;;12.89;100.00;100056.98;106033;1257;74434;-88
2023/04/27 03:01:44;;;;;;;17.50;11.80;;;;;;;12.88;100.00;100070.53;106016;1258;62784;-90
2023/04/27 03:04:13;;;;;;;21.40;9.50;;;;;;;12.85;99.94;100085.84;106003;1254;62606;-87
2023/04/27 03:06:40;;;;;;;10.90;7.70;;;;;;;12.83;99.61;100087.25;105982;1256;75801;-89
2023/04/27 03:09:09;;;;;;;17.90;11.60;;;;;;;12.81;99.36;100086.35;106384;1258;64855;-87
2023/04/27 03:11:36;;;;;;;21.70;11.70;;;;;;;12.82;99.43;100085.02;108068;1256;73630;-88
2023/04/27 03:14:03;;;;;;;17.30;10.30;;;;;;;12.87;99.76;100085.52;107498;1256;62289;-90
2023/04/27 03:16:33;;;;;;;18.70;10.60;;;;;;;12.91;99.50;100087.89;106431;1257;60553;-88
2023/04/27 03:19:01;;;;;;;21.60;11.60;;;;;;;12.91;99.14;100084.48;105914;1256;75774;-88
2023/04/27 03:21:30;;;;;;;14.60;10.20;;;;;;;12.93;99.04;100070.30;106125;1251;64997;-88
2023/04/27 03:23:57;;;;;;;15.20;9.80;;;;;;;12.98;98.79;100061.70;106276;1255;74874;-87
2023/04/27 03:26:25;;;;;;;16.90;10.30;;;;;;;12.99;98.45;100066.98;106504;1251;64323;-85
2023/04/27 03:28:52;;;;;;;17.30;8.40;;;;;;;13.01;98.07;100063.73;106583;1256;61930;-90
2023/04/27 03:31:19;;;;;;;11.80;7.60;;;;;;;13.01;97.87;100060.94;105955;1256;74851;-88
2023/04/27 03:34:03;;;;;;;11.50;8.00;;;;;;;13.03;98.02;100055.80;102814;1292;601028;-90
2023/04/27 03:36:31;;;;;;;15.20;8.70;;;;;;;13.06;98.54;100050.35;105425;1270;59348;-86
2023/04/27 03:38:58;;;;;;;14.30;8.60;;;;;;;13.15;99.17;100050.30;104871;1273;62563;-87
2023/04/27 03:41:25;;;;;;;15.50;9.40;;;;;;;13.23;99.08;100043.35;104952;1271;73181;-86
2023/04/27 03:43:52;;;;;;;16.80;11.70;;;;;;;13.34;98.93;100040.04;104825;1267;65863;-88
2023/04/27 03:46:19;;;;;;;13.90;10.30;;;;;;;13.44;98.66;100036.80;104876;1267;74713;-88
2023/04/27 03:48:49;;;;;;;24.90;13.20;;;;;;;13.51;98.53;100037.08;104794;1264;705311;-86
2023/04/27 03:51:17;;;;;;;20.00;11.90;;;;;;;13.55;98.04;100046.09;106067;1272;60932;-85
2023/04/27 03:53:45;;;;;;;19.30;14.10;;;;;;;13.55;97.57;100061.68;106112;1266;72949;-86
2023/04/27 03:56:12;;;;;;;24.80;13.50;;;;;;;13.54;96.84;100068.99;107133;1265;65072;-85
2023/04/27 03:58:39;;;;;;;22.70;12.80;;;;;;;13.54;96.62;100067.02;106261;1269;73519;-84
2023/04/27 04:01:13;;;;;;;24.20;15.80;;;;;;;13.54;96.18;100066.68;106473;1257;62568;-84
2023/04/27 04:03:41;;;;;;;28.40;18.50;;;;;;;13.46;95.81;100059.43;105699;1257;60608;-82
2023/04/27 04:06:09;;;;;;;29.40;20.70;;;;;;;13.40;95.81;100070.30;105575;1263;75230;-86
2023/04/27 04:08:37;;;;;;;33.10;21.60;;;;;;;13.33;95.91;100088.08;105624;1257;64451;-85
2023/04/27 04:11:04;;;;;;;35.90;22.60;;;;;;;13.24;96.51;100080.86;105608;1256;73474;-86
2023/04/27 04:13:32;;;;;;;26.80;18.80;;;;;;;13.17;97.11;100070.70;105485;1263;63065;-84
2023/04/27 04:16:02;;;;;;;36.70;20.30;;;;;;;13.11;98.18;100069.39;105415;1263;61572;-87
2023/04/27 04:18:29;;;;;;;31.50;19.90;;;;;;;13.09;99.36;100082.89;105573;1260;74880;-87
2023/04/27 04:20:57;;;;;;;27.30;17.50;;;;;;;13.09;99.49;100083.64;105440;1262;65849;-84
2023/04/27 04:23:24;;;;;;;26.50;16.60;;;;;;;13.09;99.42;100080.79;105592;1262;73827;-85
2023/04/27 04:25:53;;;;;;;21.60;16.40;;;;;;;13.10;99.40;100085.09;105588;1257;61691;-86
2023/04/27 04:28:20;;;;;;;25.60;16.60;;;;;;;13.11;99.49;100094.00;105582;1257;62032;-87
2023/04/27 04:30:48;;;;;;;27.70;17.30;;;;;;;13.13;99.62;100113.16;105735;1259;73975;-86
2023/04/27 04:33:16;;;;;;;21.20;14.20;;;;;;;13.17;100.00;100120.23;105545;1257;65004;-89
2023/04/27 04:35:43;;;;;;;23.50;16.70;;;;;;;13.18;100.00;100116.59;105478;1262;74617;-86
2023/04/27 04:38:10;;;;;;;26.10;17.60;;;;;;;13.19;100.00;100114.95;105560;1258;63363;-88
2023/04/27 04:40:38;;;;;;;27.00;17.80;;;;;;;13.18;100.00;100104.48;105658;1258;62230;-88
2023/04/27 04:43:05;;;;;;;27.30;19.10;;;;;;;13.17;100.00;100096.67;105456;1258;74923;-88
2023/04/27 04:45:32;;;;;;;28.40;19.20;;;;;;;13.19;100.00;100097.19;105396;1262;65885;-87
2023/04/27 04:48:03;;;;;;;28.70;18.30;;;;;;;13.24;100.00;100102.29;105476;1257;74649;-84
2023/04/27 04:50:30;;;;;;;30.10;17.30;;;;;;;13.30;100.00;100099.75;105486;1260;64181;-87
2023/04/27 04:52:57;;;;;;;27.60;18.00;;;;;;;13.33;100.00;100097.20;105724;1258;60941;-87
2023/04/27 04:55:27;;;;;;;34.10;20.40;;;;;;;13.35;100.00;100089.83;106090;1256;74955;-88
2023/04/27 04:57:54;;;;;;;35.10;22.70;;;;;;;13.38;100.00;100093.14;105979;1262;65952;-87
2023/04/27 05:00:21;;;;;;;33.50;23.30;;;;;;;13.37;100.00;100089.15;105778;1257;73756;-86
2023/04/27 05:02:50;;;;;;;31.40;20.00;;;;;;;13.41;100.00;100094.27;105882;1257;60980;-87
2023/04/27 05:05:17;;;;;;;32.70;23.30;;;;;;;13.40;100.00;100093.25;106170;1256;62342;-86
2023/04/27 05:07:44;;;;;;;32.30;22.60;;;;;;;13.40;100.00;100093.59;105854;1258;74692;-87
2023/04/27 05:10:11;;;;;;;34.30;22.20;;;;;;;13.45;100.00;100087.81;105525;1260;65927;-88
2023/04/27 05:12:38;;;;;;;32.80;21.90;;;;;;;13.53;100.00;100087.16;105710;1254;74861;-87
2023/04/27 05:15:06;;;;;;;34.50;21.30;;;;;;;13.59;100.00;100084.39;105767;1257;62880;-88
2023/04/27 05:17:33;;;;;;;32.90;20.50;;;;;;;13.61;100.00;100083.85;105645;1253;62290;-86
2023/04/27 05:20:01;;;;;;;31.50;20.60;;;;;;;13.63;100.00;100077.39;106355;1253;74891;-87
2023/04/27 05:22:28;;;;;;;34.40;20.60;;;;;;;13.63;100.00;100067.70;106362;1254;64748;-85
2023/04/27 05:24:56;;;;;;;34.40;20.60;;;;;;;13.65;100.00;100068.73;106007;1254;73049;-87
2023/04/27 05:27:24;;;;;;;28.60;19.60;;;;;;;13.68;100.00;100063.10;105897;1254;62713;-88
2023/04/27 05:29:55;;;;;;;33.70;20.70;;;;;;;13.71;100.00;100063.92;106041;1253;61981;-87
2023/04/27 05:32:22;;;;;;;28.20;18.10;;;;;;;13.68;100.00;100064.67;106266;1259;74600;-87
2023/04/27 05:34:52;;;;;;;27.50;18.40;;;;;;;13.75;100.00;100070.61;106358;1253;65843;-87
2023/04/27 05:37:21;;;;;;;26.80;17.80;;;;;;;13.82;100.00;100065.98;106050;1252;72642;-85
2023/04/27 05:39:49;;;;;;;30.00;17.50;;;;;;;13.89;100.00;100060.98;106427;1254;62634;-85
2023/04/27 05:42:17;;;;;;;26.70;16.00;;;;;;;13.97;100.00;100065.31;106342;1259;61201;-87
2023/04/27 05:44:44;;;;;;;56.30;44.10;;;;;;;14.07;100.00;100064.12;106042;1259;75022;-84
2023/04/27 05:47:11;;;;;;;22.30;15.60;;;;;;;14.17;100.00;100056.25;105867;1254;65779;-85
2023/04/27 05:49:39;;;;;;;26.80;18.20;;;;;;;14.25;100.00;100049.77;105961;1257;74194;-87
2023/04/27 05:52:06;;;;;;;26.60;17.80;;;;;;;14.31;100.00;100045.88;106010;1259;62305;-86
2023/04/27 05:54:33;;;;;;;22.10;14.50;;;;;;;14.34;100.00;100044.83;105801;1254;61747;-87
2023/04/27 05:57:00;;;;;;;18.30;13.20;;;;;;;14.35;100.00;100050.13;106018;1253;73796;-88
2023/04/27 05:59:28;;;;;;;15.20;11.50;;;;;;;14.37;100.00;100051.54;106052;1253;66411;-89
2023/04/27 06:01:57;;;;;;;16.40;11.50;;;;;;;14.42;100.00;100053.56;105895;1253;73594;-87
2023/04/27 06:04:28;;;;;;;16.90;10.20;;;;;;;14.51;100.00;100057.61;106602;1253;64315;-87
2023/04/27 06:06:56;;;;;;;19.90;10.40;;;;;;;14.61;100.00;100058.49;107341;1253;62099;-87
2023/04/27 06:09:24;;;;;;;14.40;9.00;;;;;;;14.71;100.00;100054.81;107542;1252;73009;-86
2023/04/27 06:11:51;;;;;;;14.90;8.10;;;;;;;14.86;99.93;100047.89;106874;1254;64719;-89
2023/04/27 06:14:18;;;;;;;19.70;12.50;;;;;;;15.03;98.73;100043.27;106015;1254;73585;-88
2023/04/27 06:16:45;;;;;;;13.30;9.10;;;;;;;15.38;98.46;100042.26;106024;1258;60944;-86
2023/04/27 06:19:12;;;;;;;12.70;7.10;;;;;;;15.70;97.42;100052.28;106450;1256;59666;-89
2023/04/27 06:21:40;;;;;;;10.70;7.00;;;;;;;15.98;95.25;100050.11;106447;1253;74977;-87
2023/04/27 06:24:07;;;;;;;14.80;8.10;;;;;;;16.21;93.96;100048.66;106629;1253;67132;-90
2023/04/27 06:26:34;;;;;;;13.90;7.00;;;;;;;16.49;92.88;100047.48;105858;1254;74712;-87
2023/04/27 06:29:03;;;;;;;9.10;6.80;;;;;;;16.88;91.31;100047.13;106332;1255;59676;-91
2023/04/27 06:31:30;;;;;;;9.60;6.70;;;;;;;17.26;89.22;100049.50;106018;1253;62690;-91
2023/04/27 06:33:57;;;;;;;9.40;6.40;;;;;;;17.56;86.71;100049.96;106079;1254;73633;-92
2023/04/27 06:36:28;;;;;;;10.70;5.70;;;;;;;17.66;84.48;100051.05;106490;1254;65792;-89
2023/04/27 06:38:56;;;;;;;15.10;6.70;;;;;;;17.64;83.20;100046.73;106800;1253;74490;-88
2023/04/27 06:41:24;;;;;;;9.60;6.90;;;;;;;17.69;83.10;100047.44;106243;1254;61270;-89
2023/04/27 06:43:52;;;;;;;18.70;11.60;;;;;;;17.99;83.21;100048.02;106978;1257;62264;-89
2023/04/27 06:46:20;;;;;;;11.70;6.50;;;;;;;18.49;82.31;100040.52;106647;1253;73870;-89
2023/04/27 06:48:47;;;;;;;11.30;6.70;;;;;;;19.13;81.20;100040.36;106048;1254;65651;-90
2023/04/27 06:51:14;;;;;;;8.00;5.80;;;;;;;19.82;79.22;100036.40;105974;1259;74702;-87
2023/04/27 06:53:44;;;;;;;14.30;12.80;;;;;;;20.51;75.73;100031.36;106073;1254;61019;-86
2023/04/27 06:56:12;;;;;;;10.90;6.00;;;;;;;21.08;71.85;100025.81;106055;1253;61019;-89
2023/04/27 06:58:39;;;;;;;6.20;4.90;;;;;;;21.55;69.07;100027.29;106900;1253;75469;-88
2023/04/27 07:01:06;;;;;;;11.90;7.50;;;;;;;21.96;66.63;100020.31;107047;1253;65510;-87
2023/04/27 07:03:35;;;;;;;12.00;9.20;;;;;;;22.34;64.88;100014.91;108120;1257;73982;-86
2023/04/27 07:06:03;;;;;;;6.20;5.30;;;;;;;22.67;61.01;100012.55;108527;1252;61331;-84
2023/04/27 07:08:30;;;;;;;8.70;5.60;;;;;;;23.09;58.60;100009.77;108203;1253;62348;-84
2023/04/27 07:10:57;;;;;;;7.00;5.10;;;;;;;23.52;55.50;100005.44;106486;1257;73902;-89
2023/04/27 07:13:24;;;;;;;10.30;6.90;;;;;;;23.86;54.95;99999.45;106026;1252;65806;-92
2023/04/27 07:15:57;;;;;;;7.60;5.00;;;;;;;24.13;53.23;100000.15;106740;1254;73822;-89
2023/04/27 07:18:26;;;;;;;;;;;;;;;24.42;52.23;99999.64;107086;1252;61272;-86
2023/04/27 07:20:54;;;;;;;5.50;3.90;;;;;;;24.68;52.51;100000.66;106938;1253;61783;-86
2023/04/27 07:23:21;;;;;;;5.60;4.30;;;;;;;25.04;50.80;100007.50;106889;1252;74987;-88
2023/04/27 07:25:49;;;;;;;5.90;4.60;;;;;;;25.37;50.19;100010.89;106206;1259;64491;-89
2023/04/27 07:28:17;;;;;;;9.00;4.40;;;;;;;25.64;46.75;100013.81;106297;1253;74705;-89
2023/04/27 07:30:45;;;;;;;7.30;4.80;;;;;;;25.80;46.24;100011.01;106378;1258;62388;-86
2023/04/27 07:33:13;;;;;;;5.60;5.00;;;;;;;25.93;45.90;100006.27;106611;1254;62488;-87
2023/04/27 07:35:40;;;;;;;9.80;6.20;;;;;;;26.08;45.22;100005.16;106214;1252;73980;-88
2023/04/27 07:38:08;;;;;;;6.50;5.10;;;;;;;26.22;44.49;100002.19;106609;1260;66128;-90
2023/04/27 07:40:35;;;;;;;9.00;6.30;;;;;;;26.26;43.88;99997.97;105959;1260;74657;-91
2023/04/27 07:43:03;;;;;;;9.00;4.30;;;;;;;26.35;43.88;99991.20;105856;1262;62349;-88
2023/04/27 07:45:32;;;;;;;16.40;14.60;;;;;;;26.59;44.41;99993.46;105707;1262;61012;-90
2023/04/27 07:48:00;;;;;;;16.00;5.90;;;;;;;26.79;41.38;99990.50;105461;1256;75595;-87
2023/04/27 07:50:29;;;;;;;7.60;4.00;;;;;;;26.83;41.64;99993.38;105537;1256;65816;-88
2023/04/27 07:52:57;;;;;;;4.60;3.30;;;;;;;27.06;41.04;99993.10;106090;1256;73174;-90
2023/04/27 07:55:24;;;;;;;7.60;3.80;;;;;;;27.22;40.27;99990.41;105500;1259;61057;-89
2023/04/27 07:57:53;;;;;;;4.70;3.70;;;;;;;27.41;39.85;99992.50;105666;1262;61272;-89
2023/04/27 08:00:21;;;;;;;3.90;3.30;;;;;;;27.48;38.25;99995.21;105529;1262;75822;-89
2023/04/27 08:02:49;;;;;;;6.30;3.40;;;;;;;27.51;38.65;99986.58;106100;1256;65564;-88
2023/04/27 08:05:17;;;;;;;12.50;9.70;;;;;;;27.70;38.82;99980.25;105900;1256;73743;-88
2023/04/27 08:07:45;;;;;;;8.80;4.30;;;;;;;27.87;38.90;99974.98;106523;1259;61396;-86
2023/04/27 08:10:14;;;;;;;5.00;3.60;;;;;;;28.05;38.38;99980.91;106268;1257;61753;-84
2023/04/27 08:12:41;;;;;;;5.50;3.20;;;;;;;28.17;38.18;99978.02;105629;1263;75686;-89
2023/04/27 08:15:09;;;;;;;6.20;3.50;;;;;;;28.31;37.91;99975.92;105625;1260;65557;-89
2023/04/27 08:17:39;;;;;;;8.50;5.00;;;;;;;28.48;37.20;99968.45;105719;1254;75101;-92
2023/04/27 08:20:12;;;;;;;8.30;4.40;;;;;;;28.60;36.77;99964.08;105855;1257;61353;-88
2023/04/27 08:22:40;;;;;;;5.50;4.30;;;;;;;28.82;36.83;99960.60;106699;1258;61509;-89
2023/04/27 08:25:08;;;;;;;7.50;4.80;;;;;;;29.05;36.69;99960.73;107260;1253;74860;-88
2023/04/27 08:27:38;;;;;;;5.80;4.40;;;;;;;29.17;36.09;99956.21;107964;1253;64779;-87
2023/04/27 08:30:07;;;;;;;4.90;4.20;;;;;;;29.17;36.54;99958.38;108004;1254;73343;-87
2023/04/27 08:32:34;;;;;;;7.40;6.30;;;;;;;29.27;36.05;99957.11;106231;1259;61291;-89
2023/04/27 08:35:01;;;;;;;14.90;12.50;;;;;;;29.27;35.43;99954.83;106012;1257;61169;-88
2023/04/27 08:37:29;;;;;;;5.30;4.80;;;;;;;29.14;35.85;99950.45;106019;1253;74715;-88
2023/04/27 08:39:56;;;;;;;7.00;5.20;;;;;;;29.14;35.39;99950.77;106122;1253;65777;-88
2023/04/27 08:42:23;;;;;;;6.20;4.50;;;;;;;29.09;36.10;99945.40;106079;1254;74677;-88
2023/04/27 08:45:07;;;;;;;6.60;4.90;;;;;;;29.12;35.86;99939.77;106512;1254;62074;-90
2023/04/27 08:47:46;;;;;;;9.50;5.00;;;;;;;29.16;36.04;99940.89;106269;1252;62203;-86
2023/04/27 08:50:13;;;;;;;6.60;5.40;;;;;;;29.14;35.06;99941.55;106099;1254;75791;-87
2023/04/27 08:52:43;;;;;;;12.80;6.10;;;;;;;28.68;35.50;99937.85;106245;1253;64963;-86
2023/04/27 08:55:11;;;;;;;9.90;7.10;;;;;;;28.28;36.11;99936.77;106273;1253;73814;-90
2023/04/27 08:57:53;;;;;;;15.00;7.10;;;;;;;27.90;36.62;99935.35;105898;1253;62587;-88
2023/04/27 09:00:20;;;;;;;8.80;6.40;;;;;;;27.53;37.28;99934.30;106019;1252;62282;-89
2023/04/27 09:02:47;;;;;;;9.20;6.30;;;;;;;27.16;37.46;99934.03;106203;1254;76246;-90
2023/04/27 09:05:18;;;;;;;13.10;7.10;;;;;;;26.57;38.36;99936.98;106203;1258;64566;-87
2023/04/27 09:08:06;;;;;;;11.40;7.30;;;;;;;26.05;39.61;99939.21;106541;1253;75278;-87
2023/04/27 09:10:47;;;;;;;9.40;6.30;;;;;;;25.83;41.20;99940.88;106901;1256;61694;-88
2023/04/27 09:13:15;;;;;;;11.50;6.10;;;;;;;25.84;42.21;99935.95;106452;1253;62293;-89
2023/04/27 09:15:45;;;;;;;8.50;6.90;;;;;;;25.78;41.84;99937.64;106396;1252;75646;-90
2023/04/27 09:18:21;;;;;;;10.60;7.30;;;;;;;25.64;42.50;99928.23;106628;1253;65652;-89
2023/04/27 09:20:50;;;;;;;5.20;4.40;;;;;;;25.48;43.49;99926.90;106179;1254;74448;-89
2023/04/27 09:23:36;;;;;;;7.10;5.50;;;;;;;25.39;44.04;99925.95;106313;1253;61490;-91
2023/04/27 09:26:06;;;;;;;9.20;5.20;;;;;;;25.21;44.24;99920.09;106843;1253;62337;-90
2023/04/27 09:28:38;;;;;;;6.70;5.60;;;;;;;24.97;44.99;99925.20;108053;1257;74557;-87
2023/04/27 09:31:07;;;;;;;7.90;6.50;;;;;;;24.77;46.26;99921.39;107367;1257;66094;-85
2023/04/27 09:33:35;;;;;;;26.70;20.50;;;;;;;24.67;46.79;99920.50;107443;1257;73662;-87
2023/04/27 09:36:04;;;;;;;9.50;5.40;;;;;;;24.74;47.83;99924.72;106505;1253;62320;-84
2023/04/27 09:38:31;;;;;;;10.10;4.70;;;;;;;24.72;47.39;99921.55;106129;1257;61225;-89
2023/04/27 09:40:59;;;;;;;6.50;5.50;;;;;;;24.66;47.21;99919.79;106068;1253;76084;-88
2023/04/27 09:43:27;;;;;;;8.80;5.30;;;;;;;24.52;47.88;99920.27;106286;1257;66010;-87
2023/04/27 09:45:54;;;;;;;6.40;5.10;;;;;;;24.44;47.93;99917.20;106150;1253;74927;-90
2023/04/27 09:48:22;;;;;;;7.20;5.60;;;;;;;24.52;48.68;99913.80;105934;1254;61014;-89
2023/04/27 09:50:50;;;;;;;8.90;6.10;;;;;;;24.81;48.86;99912.27;105937;1253;62383;-90
2023/04/27 09:56:10;;;;;;;11.70;8.30;;;;;;;25.54;46.21;99912.80;104429;1285;613486;-89
2023/04/27 09:58:58;;;;;;;7.80;5.70;;;;;;;25.69;45.47;99908.33;105852;1262;60916;-87
2023/04/27 10:01:39;;;;;;;13.40;9.00;;;;;;;25.59;45.10;99905.56;107261;1257;60749;-87
2023/04/27 10:04:41;;;;;;;20.00;13.10;;;;;;;25.52;45.07;99902.80;106709;1257;73729;-89
2023/04/27 10:07:11;;;;;;;8.20;6.40;;;;;;;25.51;44.99;99899.62;105661;1256;63944;-90
2023/04/27 10:09:44;;;;;;;14.80;8.70;;;;;;;25.42;44.99;99900.13;105302;1259;745867;-89
2023/04/27 10:12:27;;;;;;;11.60;7.10;;;;;;;25.55;45.12;99898.76;105827;1262;60070;-86
2023/04/27 10:14:55;;;;;;;13.00;9.20;;;;;;;25.60;45.04;99900.58;105856;1257;61266;-89
2023/04/27 10:17:32;;;;;;;11.80;5.40;;;;;;;25.53;44.51;99897.23;105856;1258;73182;-88
2023/04/27 10:20:00;;;;;;;10.30;4.60;;;;;;;25.39;44.76;99895.13;105753;1261;64814;-90
2023/04/27 10:22:44;;;;;;;13.50;7.40;;;;;;;25.31;44.99;99891.98;105912;1256;73928;-89
2023/04/27 10:25:15;;;;;;;;;;;;;;;25.37;45.65;99898.60;106070;1256;60123;-88
2023/04/27 10:27:42;;;;;;;9.00;4.90;;;;;;;25.46;45.03;99897.27;106091;1257;60119;-88
2023/04/27 10:30:10;;;;;;;6.10;3.80;;;;;;;25.49;45.99;99900.26;106606;1254;73183;-87
2023/04/27 10:32:37;;;;;;;6.50;3.90;;;;;;;25.38;46.14;99901.36;106867;1253;64530;-88
2023/04/27 10:35:08;;;;;;;6.60;4.30;;;;;;;25.23;46.76;99898.19;107111;1253;73568;-87
2023/04/27 10:37:42;;;;;;;7.60;2.90;;;;;;;25.15;46.56;99894.06;108084;1254;60003;-85
2023/04/27 10:40:13;;;;;;;8.20;3.30;;;;;;;25.11;42.62;99889.31;107055;1257;61258;-86
2023/04/27 10:42:41;;;;;;;4.40;3.50;;;;;;;25.10;40.39;99891.48;106509;1254;73950;-86
2023/04/27 10:45:08;;;;;;;6.30;4.30;;;;;;;24.89;39.82;99889.89;106801;1256;64716;-89
2023/04/27 10:47:43;;;;;;;8.30;5.50;;;;;;;24.69;40.71;99894.80;106718;1254;71412;-87
2023/04/27 10:50:12;;;;;;;9.60;5.60;;;;;;;24.67;40.92;99889.67;108561;1255;61968;-88
2023/04/27 10:52:41;;;;;;;12.80;8.90;;;;;;;24.80;41.09;99892.23;107723;1254;61017;-88
2023/04/27 10:55:13;;;;;;;10.70;7.20;;;;;;;25.03;39.95;99890.86;106883;1257;73470;-90
2023/04/27 10:57:51;;;;;;;8.90;6.70;;;;;;;25.28;39.45;99897.56;106165;1256;63883;-91
2023/04/27 11:00:22;;;;;;;8.00;4.40;;;;;;;25.62;38.60;99894.61;106268;1254;72792;-87
2023/04/27 11:02:51;;;;;;;9.70;4.70;;;;;;;25.96;37.20;99885.29;106196;1257;61966;-86
2023/04/27 11:05:19;;;;;;;8.60;4.90;;;;;;;26.09;36.95;99887.28;106270;1254;61728;-89
2023/04/27 11:07:46;;;;;;;8.70;5.20;;;;;;;26.11;36.90;99891.52;105978;1254;73097;-88
2023/04/27 11:10:15;;;;;;;7.50;4.60;;;;;;;26.18;36.39;99888.73;106794;1254;63738;-89
2023/04/27 11:12:42;;;;;;;7.40;3.50;;;;;;;26.31;35.86;99884.63;106459;1254;72692;-87
2023/04/27 11:15:10;;;;;;;3.40;2.70;;;;;;;26.58;34.95;99879.17;106475;1257;61074;-90
2023/04/27 11:17:38;;;;;;;4.30;2.10;;;;;;;26.96;34.15;99875.11;106091;1254;61852;-88